Impacts METAR Board
IDs:

KIAH - Houston/Bush Intl, TX, US

Updated at: 1800 UTC 22 Sep 2018
Potential Impact None Slight Moderate High
Time 22/06Z 22/07Z 22/08Z 22/09Z 22/10Z 22/11Z 22/12Z 22/13Z 22/14Z 22/15Z 22/16Z 22/17Z 22/18Z
Temp79 79 80 80 79 80 79 80 81 77 80 83 85
Dewpt79 79 80 80 79 80 79 80 81 77 77 80 79
Altim29.95 29.93 29.91 29.90 29.90 29.91 29.92 29.92 29.93 29.93 29.94 29.94 29.92
VIS9 9 10 10 8 9 9 7 7 7 10 10 10
CIG15 160 250 12 10 250 100 250 80 90 150 150 250
CoverBKNBKNBKNBKNBKNBKNBKNBKNBKNBKNBKNBKNBKN
FltCatMVFRVFRVFRMVFRMVFRVFRVFRVFRVFRVFRVFRVFRVFR
WX---------------RA---RA------
WDir0160200160000190170190180160170
WSpd0 4 3 3 0 0 0 5 4 5 5 10 6
WGst-- -- -- -- -- -- -- -- -- -- -- -- --
Raw hourly METARs
KIAH 220553Z 00000KT 9SM BKN015 BKN160 BKN250 26/26 A2995 RMK AO2 SLP139 BKN015VSCT 60002 T02610261 10261 20250 403110233 55004
KIAH 220653Z 16004KT 9SM FEW012 SCT028 BKN160 BKN250 26/26 A2993 RMK AO2 SLP132 T02610261
KIAH 220753Z 20003KT 10SM FEW015 SCT150 BKN250 27/27 A2991 RMK AO2 SLP127 T02670267
KIAH 220853Z 16003KT 10SM BKN012 BKN150 BKN250 27/27 A2990 RMK AO2 SLP126 OCNL LTGIC DSNT E CB DSNT E MOV N T02670267 56015
KIAH 220953Z 00000KT 8SM FEW005 BKN010 BKN150 BKN250 26/26 A2990 RMK AO2 SLP123 OCNL LTGIC DSNT SE NE CB DSNT SE NE MOV N BKN010 V SCT T02610261
KIAH 221053Z 00000KT 9SM FEW010 SCT022 SCT150 BKN250 27/27 A2991 RMK AO2 SLP128 T02670267
KIAH 221153Z 00000KT 9SM SCT020 BKN100 BKN250 26/26 A2992 RMK AO2 SLP131 OCNL LTGICCC DSNT E CB DSNT E MOV N 70041 T02610261 10267 20261 53005
KIAH 221253Z 19005KT 7SM -RA SCT012 SCT035 SCT080 BKN250 27/27 A2992 RMK AO2 RAB44 SLP133 VCSH NE-SE P0000 T02670267
KIAH 221353Z 17004KT 7SM SCT012 SCT035 BKN080 BKN250 27/27 A2993 RMK AO2 LTG DSNT E RAE1258 SLP135 SCT012 V BKN SHRA DSNT NE-SE-S P0001 T02720272
KIAH 221453Z 19005KT 7SM -RA SCT025 SCT050 BKN090 BKN150 BKN250 25/25 A2993 RMK AO2 RAB22 SLP135 P0020 60021 T02500250 50004
KIAH 221553Z 18005KT 10SM FEW025 FEW045 FEW100 BKN150 BKN250 27/25 A2994 RMK AO2 RAE1454B38E47 SLP137 VCSH N P0000 T02670250
KIAH 221653Z 16010KT 10SM FEW025 FEW100 BKN150 BKN250 28/27 A2994 RMK AO2 SLP136 SHRA DSNT W-N P0001 T02830267
KIAH 221753Z 17006KT 10SM SCT025 SCT130 BKN250 29/26 A2992 RMK AO2 LTG DSNT W-N SLP129 CB DSNT NW-N MOV NE 60022 T02940261 10300 20244 58005



Page loaded:  18:25 UTC  |   11:25 AM Pacific  |   12:25 PM Mountain  |   01:25 PM Central  |   02:25 PM Eastern

 

ADVISORIES

FORECASTS

FORECASTS

OBSERVATIONS

USER TOOLS

ABOUT US